Weather at Iberlin Ranch Number 2 Airport

Public forecast

Using degrees Fahrenheit for public forecast. Weather courtesy of forecast.io.

Closest aviation weather report (METAR) to Iberlin Ranch Number 2 Airport

Closest report is Casper-Natrona County International Airport, 43.9 nm (81.3 km) SSW.

2023/09/29 19:53 (retrieved 57 minutes ago)

KCPR 291953Z 21016G25KT 10SM CLR 25/M01 A2991 RMK AO2 SLP070 T02501006

Closest aviation forecast (TAF) to Iberlin Ranch Number 2 Airport

Closest forecast is Casper-Natrona County International Airport, 43.9 nm (81.3 km) SSW.

2023/09/29 18:24 (retrieved 2 hours ago)

TAF KCPR 291721Z 2918/3018 22010KT P6SM SCT200 FM291900 23012G22KT P6SM SCT200 FM300100 VRB06KT P6SM FEW200